sensor_id;sensor_type;location;lat;lon;timestamp;P1;durP1;ratioP1;P2;durP2;ratioP2
78542;SDS011;67836;52.430;14.446;2023-07-29T00:01:33;6.53;;;3.00;;
78542;SDS011;67836;52.430;14.446;2023-07-29T00:04:18;9.68;;;4.50;;
78542;SDS011;67836;52.430;14.446;2023-07-29T00:07:02;7.70;;;3.92;;
78542;SDS011;67836;52.430;14.446;2023-07-29T00:09:46;5.68;;;2.38;;
78542;SDS011;67836;52.430;14.446;2023-07-29T00:12:30;8.38;;;4.32;;
78542;SDS011;67836;52.430;14.446;2023-07-29T00:15:14;9.93;;;4.32;;
78542;SDS011;67836;52.430;14.446;2023-07-29T00:17:59;7.07;;;3.35;;
78542;SDS011;67836;52.430;14.446;2023-07-29T00:20:43;5.88;;;2.85;;
78542;SDS011;67836;52.430;14.446;2023-07-29T00:23:27;10.98;;;4.82;;
78542;SDS011;67836;52.430;14.446;2023-07-29T00:26:12;9.43;;;5.63;;
78542;SDS011;67836;52.430;14.446;2023-07-29T00:28:56;9.23;;;5.03;;
78542;SDS011;67836;52.430;14.446;2023-07-29T00:31:40;8.43;;;4.93;;
78542;SDS011;67836;52.430;14.446;2023-07-29T00:34:25;8.93;;;4.82;;
78542;SDS011;67836;52.430;14.446;2023-07-29T00:37:08;10.27;;;4.88;;
78542;SDS011;67836;52.430;14.446;2023-07-29T00:39:52;11.43;;;5.07;;
78542;SDS011;67836;52.430;14.446;2023-07-29T00:42:36;10.23;;;5.00;;
78542;SDS011;67836;52.430;14.446;2023-07-29T00:48:03;3.83;;;1.85;;
78542;SDS011;67836;52.430;14.446;2023-07-29T00:50:48;7.00;;;3.28;;
78542;SDS011;67836;52.430;14.446;2023-07-29T00:53:33;9.55;;;4.95;;
78542;SDS011;67836;52.430;14.446;2023-07-29T00:56:17;3.53;;;1.65;;
78542;SDS011;67836;52.430;14.446;2023-07-29T00:59:01;9.07;;;4.68;;
78542;SDS011;67836;52.430;14.446;2023-07-29T01:01:46;5.93;;;2.83;;
78542;SDS011;67836;52.430;14.446;2023-07-29T01:04:30;9.77;;;5.05;;
78542;SDS011;67836;52.430;14.446;2023-07-29T01:07:19;10.25;;;4.38;;
78542;SDS011;67836;52.430;14.446;2023-07-29T01:16:01;10.50;;;4.43;;
78542;SDS011;67836;52.430;14.446;2023-07-29T01:18:49;10.43;;;4.95;;
78542;SDS011;67836;52.430;14.446;2023-07-29T01:21:35;7.95;;;4.07;;
78542;SDS011;67836;52.430;14.446;2023-07-29T01:24:20;10.68;;;5.32;;
78542;SDS011;67836;52.430;14.446;2023-07-29T01:27:04;10.85;;;5.07;;
78542;SDS011;67836;52.430;14.446;2023-07-29T01:29:49;9.02;;;5.15;;
78542;SDS011;67836;52.430;14.446;2023-07-29T01:35:29;9.50;;;5.28;;
78542;SDS011;67836;52.430;14.446;2023-07-29T01:38:17;8.02;;;4.68;;
78542;SDS011;67836;52.430;14.446;2023-07-29T01:41:03;9.18;;;4.55;;
78542;SDS011;67836;52.430;14.446;2023-07-29T01:43:47;9.20;;;4.93;;
78542;SDS011;67836;52.430;14.446;2023-07-29T01:46:33;8.98;;;4.38;;
78542;SDS011;67836;52.430;14.446;2023-07-29T01:49:17;10.90;;;5.15;;
78542;SDS011;67836;52.430;14.446;2023-07-29T01:52:01;11.45;;;4.72;;
78542;SDS011;67836;52.430;14.446;2023-07-29T01:54:45;13.88;;;4.97;;
78542;SDS011;67836;52.430;14.446;2023-07-29T01:57:28;10.32;;;4.93;;
78542;SDS011;67836;52.430;14.446;2023-07-29T02:00:13;9.45;;;5.10;;
78542;SDS011;67836;52.430;14.446;2023-07-29T02:02:57;13.32;;;4.97;;
78542;SDS011;67836;52.430;14.446;2023-07-29T02:05:41;11.85;;;5.40;;
78542;SDS011;67836;52.430;14.446;2023-07-29T02:08:27;9.63;;;4.38;;
78542;SDS011;67836;52.430;14.446;2023-07-29T02:11:11;11.10;;;5.57;;
78542;SDS011;67836;52.430;14.446;2023-07-29T02:13:55;11.55;;;5.47;;
78542;SDS011;67836;52.430;14.446;2023-07-29T02:16:40;9.38;;;4.97;;
78542;SDS011;67836;52.430;14.446;2023-07-29T02:22:07;8.75;;;4.90;;
78542;SDS011;67836;52.430;14.446;2023-07-29T02:24:51;10.13;;;5.07;;
78542;SDS011;67836;52.430;14.446;2023-07-29T02:27:35;9.50;;;5.18;;
78542;SDS011;67836;52.430;14.446;2023-07-29T02:30:20;8.43;;;4.55;;
78542;SDS011;67836;52.430;14.446;2023-07-29T02:33:05;9.52;;;4.85;;
78542;SDS011;67836;52.430;14.446;2023-07-29T02:35:49;9.27;;;4.78;;
78542;SDS011;67836;52.430;14.446;2023-07-29T02:41:16;10.75;;;4.90;;
78542;SDS011;67836;52.430;14.446;2023-07-29T02:44:01;9.75;;;4.45;;
78542;SDS011;67836;52.430;14.446;2023-07-29T02:46:45;11.18;;;5.72;;
78542;SDS011;67836;52.430;14.446;2023-07-29T02:54:57;9.00;;;4.70;;
78542;SDS011;67836;52.430;14.446;2023-07-29T03:00:24;12.27;;;4.60;;
78542;SDS011;67836;52.430;14.446;2023-07-29T03:03:08;8.45;;;4.57;;
78542;SDS011;67836;52.430;14.446;2023-07-29T03:05:57;9.00;;;4.47;;
78542;SDS011;67836;52.430;14.446;2023-07-29T03:08:45;11.60;;;5.10;;
78542;SDS011;67836;52.430;14.446;2023-07-29T03:11:29;37.30;;;5.55;;
78542;SDS011;67836;52.430;14.446;2023-07-29T03:14:14;12.85;;;6.65;;
78542;SDS011;67836;52.430;14.446;2023-07-29T03:17:02;11.57;;;4.85;;
78542;SDS011;67836;52.430;14.446;2023-07-29T03:19:47;10.13;;;4.95;;
78542;SDS011;67836;52.430;14.446;2023-07-29T03:22:31;10.07;;;5.22;;
78542;SDS011;67836;52.430;14.446;2023-07-29T03:27:59;11.65;;;5.47;;
78542;SDS011;67836;52.430;14.446;2023-07-29T03:30:44;13.35;;;5.90;;
78542;SDS011;67836;52.430;14.446;2023-07-29T03:33:28;19.92;;;5.68;;
78542;SDS011;67836;52.430;14.446;2023-07-29T03:36:12;30.02;;;5.43;;
78542;SDS011;67836;52.430;14.446;2023-07-29T03:38:56;38.45;;;5.90;;
78542;SDS011;67836;52.430;14.446;2023-07-29T03:41:40;30.40;;;5.10;;
78542;SDS011;67836;52.430;14.446;2023-07-29T03:44:24;80.30;;;6.53;;
78542;SDS011;67836;52.430;14.446;2023-07-29T03:47:09;12.15;;;4.07;;
78542;SDS011;67836;52.430;14.446;2023-07-29T03:49:53;9.35;;;4.43;;
78542;SDS011;67836;52.430;14.446;2023-07-29T03:55:23;19.15;;;4.50;;
78542;SDS011;67836;52.430;14.446;2023-07-29T03:58:07;12.95;;;4.15;;
78542;SDS011;67836;52.430;14.446;2023-07-29T04:00:51;8.60;;;4.22;;
78542;SDS011;67836;52.430;14.446;2023-07-29T04:03:35;9.55;;;5.03;;
78542;SDS011;67836;52.430;14.446;2023-07-29T04:06:18;11.55;;;5.28;;
78542;SDS011;67836;52.430;14.446;2023-07-29T04:09:03;14.05;;;5.60;;
78542;SDS011;67836;52.430;14.446;2023-07-29T04:11:47;11.70;;;5.20;;
78542;SDS011;67836;52.430;14.446;2023-07-29T04:14:31;13.15;;;6.00;;
78542;SDS011;67836;52.430;14.446;2023-07-29T04:17:14;7.95;;;3.85;;
78542;SDS011;67836;52.430;14.446;2023-07-29T04:19:58;10.68;;;5.35;;
78542;SDS011;67836;52.430;14.446;2023-07-29T04:22:42;10.40;;;5.50;;
78542;SDS011;67836;52.430;14.446;2023-07-29T04:25:27;14.60;;;5.97;;
78542;SDS011;67836;52.430;14.446;2023-07-29T04:28:11;13.27;;;6.78;;
78542;SDS011;67836;52.430;14.446;2023-07-29T04:30:55;13.18;;;6.15;;
78542;SDS011;67836;52.430;14.446;2023-07-29T04:33:39;10.25;;;4.90;;
78542;SDS011;67836;52.430;14.446;2023-07-29T04:36:23;10.90;;;5.95;;
78542;SDS011;67836;52.430;14.446;2023-07-29T04:39:07;9.93;;;3.70;;
78542;SDS011;67836;52.430;14.446;2023-07-29T04:41:51;4.65;;;2.90;;
78542;SDS011;67836;52.430;14.446;2023-07-29T04:44:35;3.88;;;2.25;;
78542;SDS011;67836;52.430;14.446;2023-07-29T04:50:02;14.57;;;7.43;;
78542;SDS011;67836;52.430;14.446;2023-07-29T04:52:46;12.68;;;7.70;;
78542;SDS011;67836;52.430;14.446;2023-07-29T04:55:30;10.73;;;6.07;;
78542;SDS011;67836;52.430;14.446;2023-07-29T04:58:14;13.95;;;6.15;;
78542;SDS011;67836;52.430;14.446;2023-07-29T05:00:58;9.50;;;5.43;;
78542;SDS011;67836;52.430;14.446;2023-07-29T05:03:42;13.43;;;7.72;;
78542;SDS011;67836;52.430;14.446;2023-07-29T05:06:27;13.10;;;6.47;;
78542;SDS011;67836;52.430;14.446;2023-07-29T05:09:15;7.65;;;3.42;;
78542;SDS011;67836;52.430;14.446;2023-07-29T05:11:59;9.88;;;5.28;;
78542;SDS011;67836;52.430;14.446;2023-07-29T05:14:43;13.68;;;7.18;;
78542;SDS011;67836;52.430;14.446;2023-07-29T05:17:27;13.90;;;6.82;;
78542;SDS011;67836;52.430;14.446;2023-07-29T05:20:10;12.95;;;7.78;;
78542;SDS011;67836;52.430;14.446;2023-07-29T05:22:55;8.25;;;3.95;;
78542;SDS011;67836;52.430;14.446;2023-07-29T05:25:39;6.15;;;3.13;;
78542;SDS011;67836;52.430;14.446;2023-07-29T05:28:24;4.43;;;1.95;;
78542;SDS011;67836;52.430;14.446;2023-07-29T05:31:08;5.93;;;2.97;;
78542;SDS011;67836;52.430;14.446;2023-07-29T05:33:52;7.35;;;4.07;;
78542;SDS011;67836;52.430;14.446;2023-07-29T05:36:36;5.03;;;2.63;;
78542;SDS011;67836;52.430;14.446;2023-07-29T05:39:20;4.22;;;2.00;;
78542;SDS011;67836;52.430;14.446;2023-07-29T05:42:04;7.80;;;2.58;;
78542;SDS011;67836;52.430;14.446;2023-07-29T05:44:48;4.57;;;2.55;;
78542;SDS011;67836;52.430;14.446;2023-07-29T05:47:47;7.18;;;3.47;;
78542;SDS011;67836;52.430;14.446;2023-07-29T05:50:31;4.72;;;2.13;;
78542;SDS011;67836;52.430;14.446;2023-07-29T05:53:15;5.05;;;2.55;;
78542;SDS011;67836;52.430;14.446;2023-07-29T05:55:59;6.32;;;3.33;;
78542;SDS011;67836;52.430;14.446;2023-07-29T05:58:43;4.90;;;2.45;;
78542;SDS011;67836;52.430;14.446;2023-07-29T06:01:28;3.10;;;1.50;;
78542;SDS011;67836;52.430;14.446;2023-07-29T06:04:12;5.00;;;1.92;;
78542;SDS011;67836;52.430;14.446;2023-07-29T06:06:56;6.47;;;3.53;;
78542;SDS011;67836;52.430;14.446;2023-07-29T06:09:40;5.75;;;2.90;;
78542;SDS011;67836;52.430;14.446;2023-07-29T06:12:24;6.03;;;2.40;;
78542;SDS011;67836;52.430;14.446;2023-07-29T06:15:09;6.60;;;3.80;;
78542;SDS011;67836;52.430;14.446;2023-07-29T06:17:53;5.88;;;3.08;;
78542;SDS011;67836;52.430;14.446;2023-07-29T06:20:37;4.38;;;2.05;;
78542;SDS011;67836;52.430;14.446;2023-07-29T06:23:21;5.43;;;2.40;;
78542;SDS011;67836;52.430;14.446;2023-07-29T06:26:05;5.78;;;2.85;;
78542;SDS011;67836;52.430;14.446;2023-07-29T06:28:50;5.68;;;3.20;;
78542;SDS011;67836;52.430;14.446;2023-07-29T06:31:34;5.30;;;3.05;;
78542;SDS011;67836;52.430;14.446;2023-07-29T06:34:18;6.78;;;3.90;;
78542;SDS011;67836;52.430;14.446;2023-07-29T06:37:03;5.28;;;2.28;;
78542;SDS011;67836;52.430;14.446;2023-07-29T06:39:47;4.53;;;2.22;;
78542;SDS011;67836;52.430;14.446;2023-07-29T06:42:31;3.58;;;1.83;;
78542;SDS011;67836;52.430;14.446;2023-07-29T06:45:15;3.63;;;2.10;;
78542;SDS011;67836;52.430;14.446;2023-07-29T06:47:59;6.32;;;2.92;;
78542;SDS011;67836;52.430;14.446;2023-07-29T06:50:43;6.20;;;2.90;;
78542;SDS011;67836;52.430;14.446;2023-07-29T06:53:27;4.15;;;1.90;;
78542;SDS011;67836;52.430;14.446;2023-07-29T06:56:11;6.20;;;3.05;;
78542;SDS011;67836;52.430;14.446;2023-07-29T06:58:55;5.57;;;2.90;;
78542;SDS011;67836;52.430;14.446;2023-07-29T07:01:39;4.50;;;2.05;;
78542;SDS011;67836;52.430;14.446;2023-07-29T07:04:23;4.75;;;2.58;;
78542;SDS011;67836;52.430;14.446;2023-07-29T07:07:07;5.68;;;2.70;;
78542;SDS011;67836;52.430;14.446;2023-07-29T07:09:51;4.80;;;2.30;;
78542;SDS011;67836;52.430;14.446;2023-07-29T07:12:35;5.32;;;2.58;;
78542;SDS011;67836;52.430;14.446;2023-07-29T07:15:20;3.20;;;1.70;;
78542;SDS011;67836;52.430;14.446;2023-07-29T07:18:04;4.72;;;1.95;;
78542;SDS011;67836;52.430;14.446;2023-07-29T07:20:49;5.80;;;3.10;;
78542;SDS011;67836;52.430;14.446;2023-07-29T07:23:33;6.20;;;3.50;;
78542;SDS011;67836;52.430;14.446;2023-07-29T07:26:18;2.65;;;1.33;;
78542;SDS011;67836;52.430;14.446;2023-07-29T07:29:02;3.72;;;2.08;;
78542;SDS011;67836;52.430;14.446;2023-07-29T07:31:50;5.43;;;2.83;;
78542;SDS011;67836;52.430;14.446;2023-07-29T07:34:36;3.15;;;1.65;;
78542;SDS011;67836;52.430;14.446;2023-07-29T07:37:20;5.72;;;2.97;;
78542;SDS011;67836;52.430;14.446;2023-07-29T07:40:04;5.03;;;2.58;;
78542;SDS011;67836;52.430;14.446;2023-07-29T07:42:48;5.53;;;2.88;;
78542;SDS011;67836;52.430;14.446;2023-07-29T07:45:33;6.25;;;2.90;;
78542;SDS011;67836;52.430;14.446;2023-07-29T07:48:17;4.75;;;2.50;;
78542;SDS011;67836;52.430;14.446;2023-07-29T07:51:13;5.97;;;2.88;;
78542;SDS011;67836;52.430;14.446;2023-07-29T07:53:57;7.07;;;3.60;;
78542;SDS011;67836;52.430;14.446;2023-07-29T07:56:42;1.50;;;0.93;;
78542;SDS011;67836;52.430;14.446;2023-07-29T07:59:26;5.20;;;2.25;;
78542;SDS011;67836;52.430;14.446;2023-07-29T08:02:10;5.50;;;3.00;;
78542;SDS011;67836;52.430;14.446;2023-07-29T08:04:54;3.50;;;1.60;;
78542;SDS011;67836;52.430;14.446;2023-07-29T08:07:38;4.38;;;2.30;;
78542;SDS011;67836;52.430;14.446;2023-07-29T08:10:22;4.80;;;2.30;;
78542;SDS011;67836;52.430;14.446;2023-07-29T08:13:05;4.60;;;2.38;;
78542;SDS011;67836;52.430;14.446;2023-07-29T08:15:50;6.03;;;3.20;;
78542;SDS011;67836;52.430;14.446;2023-07-29T08:18:35;1.48;;;1.08;;
78542;SDS011;67836;52.430;14.446;2023-07-29T08:21:18;4.75;;;2.72;;
78542;SDS011;67836;52.430;14.446;2023-07-29T08:24:03;4.65;;;2.30;;
78542;SDS011;67836;52.430;14.446;2023-07-29T08:26:47;3.33;;;1.85;;
78542;SDS011;67836;52.430;14.446;2023-07-29T08:29:31;2.97;;;1.48;;
78542;SDS011;67836;52.430;14.446;2023-07-29T08:32:15;4.55;;;2.03;;
78542;SDS011;67836;52.430;14.446;2023-07-29T08:34:59;4.00;;;1.83;;
78542;SDS011;67836;52.430;14.446;2023-07-29T08:37:43;3.80;;;1.85;;
78542;SDS011;67836;52.430;14.446;2023-07-29T08:40:27;2.58;;;1.30;;
78542;SDS011;67836;52.430;14.446;2023-07-29T08:43:13;2.83;;;1.55;;
78542;SDS011;67836;52.430;14.446;2023-07-29T08:45:58;5.25;;;2.28;;
78542;SDS011;67836;52.430;14.446;2023-07-29T08:48:43;3.65;;;2.00;;
78542;SDS011;67836;52.430;14.446;2023-07-29T08:51:27;3.22;;;1.92;;
78542;SDS011;67836;52.430;14.446;2023-07-29T08:54:12;3.83;;;2.15;;
78542;SDS011;67836;52.430;14.446;2023-07-29T08:56:57;4.18;;;2.35;;
78542;SDS011;67836;52.430;14.446;2023-07-29T08:59:41;3.97;;;1.73;;
78542;SDS011;67836;52.430;14.446;2023-07-29T09:02:25;3.03;;;1.63;;
78542;SDS011;67836;52.430;14.446;2023-07-29T09:05:10;2.80;;;1.73;;
78542;SDS011;67836;52.430;14.446;2023-07-29T09:07:54;1.83;;;1.35;;
78542;SDS011;67836;52.430;14.446;2023-07-29T09:10:39;2.33;;;1.00;;
78542;SDS011;67836;52.430;14.446;2023-07-29T09:13:23;4.50;;;1.45;;
78542;SDS011;67836;52.430;14.446;2023-07-29T09:16:08;3.95;;;2.20;;
78542;SDS011;67836;52.430;14.446;2023-07-29T09:18:53;2.42;;;1.10;;
78542;SDS011;67836;52.430;14.446;2023-07-29T09:21:39;2.58;;;1.50;;
78542;SDS011;67836;52.430;14.446;2023-07-29T09:24:23;3.00;;;1.52;;
78542;SDS011;67836;52.430;14.446;2023-07-29T09:27:08;1.73;;;1.13;;
78542;SDS011;67836;52.430;14.446;2023-07-29T09:29:52;2.22;;;1.20;;
78542;SDS011;67836;52.430;14.446;2023-07-29T09:32:37;2.08;;;1.23;;
78542;SDS011;67836;52.430;14.446;2023-07-29T09:35:23;2.50;;;1.33;;
78542;SDS011;67836;52.430;14.446;2023-07-29T09:38:07;2.83;;;1.33;;
78542;SDS011;67836;52.430;14.446;2023-07-29T09:40:51;2.70;;;1.25;;
78542;SDS011;67836;52.430;14.446;2023-07-29T09:43:38;2.15;;;1.10;;
78542;SDS011;67836;52.430;14.446;2023-07-29T09:46:23;3.80;;;1.52;;
78542;SDS011;67836;52.430;14.446;2023-07-29T09:49:09;1.63;;;1.15;;
78542;SDS011;67836;52.430;14.446;2023-07-29T09:51:55;1.73;;;1.13;;
78542;SDS011;67836;52.430;14.446;2023-07-29T09:54:39;3.42;;;1.48;;
78542;SDS011;67836;52.430;14.446;2023-07-29T09:57:24;2.33;;;1.20;;
78542;SDS011;67836;52.430;14.446;2023-07-29T10:00:10;2.03;;;1.10;;
78542;SDS011;67836;52.430;14.446;2023-07-29T10:02:54;0.90;;;0.70;;
78542;SDS011;67836;52.430;14.446;2023-07-29T10:05:39;1.55;;;0.77;;
78542;SDS011;67836;52.430;14.446;2023-07-29T10:08:23;2.33;;;1.45;;
78542;SDS011;67836;52.430;14.446;2023-07-29T10:11:08;1.67;;;1.13;;
78542;SDS011;67836;52.430;14.446;2023-07-29T10:14:11;2.08;;;1.20;;
78542;SDS011;67836;52.430;14.446;2023-07-29T10:16:55;2.30;;;1.30;;
78542;SDS011;67836;52.430;14.446;2023-07-29T10:19:41;3.08;;;1.20;;
78542;SDS011;67836;52.430;14.446;2023-07-29T10:22:28;3.33;;;0.80;;
78542;SDS011;67836;52.430;14.446;2023-07-29T10:25:16;1.27;;;0.85;;
78542;SDS011;67836;52.430;14.446;2023-07-29T10:28:04;1.58;;;1.05;;
78542;SDS011;67836;52.430;14.446;2023-07-29T10:30:49;2.38;;;1.27;;
78542;SDS011;67836;52.430;14.446;2023-07-29T10:33:34;2.42;;;1.33;;
78542;SDS011;67836;52.430;14.446;2023-07-29T10:36:18;1.85;;;1.15;;
78542;SDS011;67836;52.430;14.446;2023-07-29T10:39:02;1.92;;;1.13;;
78542;SDS011;67836;52.430;14.446;2023-07-29T10:41:59;2.20;;;1.25;;
78542;SDS011;67836;52.430;14.446;2023-07-29T10:44:47;2.13;;;1.20;;
78542;SDS011;67836;52.430;14.446;2023-07-29T10:47:33;3.03;;;1.40;;
78542;SDS011;67836;52.430;14.446;2023-07-29T10:50:18;2.25;;;1.27;;
78542;SDS011;67836;52.430;14.446;2023-07-29T10:53:03;1.83;;;1.20;;
78542;SDS011;67836;52.430;14.446;2023-07-29T10:55:47;2.85;;;1.30;;
78542;SDS011;67836;52.430;14.446;2023-07-29T10:58:30;2.03;;;1.10;;
78542;SDS011;67836;52.430;14.446;2023-07-29T11:01:22;1.33;;;1.00;;
78542;SDS011;67836;52.430;14.446;2023-07-29T11:15:27;1.92;;;1.23;;
78542;SDS011;67836;52.430;14.446;2023-07-29T11:18:12;1.95;;;1.27;;
78542;SDS011;67836;52.430;14.446;2023-07-29T11:20:59;2.05;;;1.15;;
78542;SDS011;67836;52.430;14.446;2023-07-29T11:23:44;1.52;;;1.00;;
78542;SDS011;67836;52.430;14.446;2023-07-29T11:26:28;1.80;;;1.13;;
78542;SDS011;67836;52.430;14.446;2023-07-29T11:29:12;1.45;;;1.02;;
78542;SDS011;67836;52.430;14.446;2023-07-29T11:31:56;1.75;;;1.25;;
78542;SDS011;67836;52.430;14.446;2023-07-29T11:34:41;1.95;;;1.20;;
78542;SDS011;67836;52.430;14.446;2023-07-29T11:37:25;3.08;;;1.38;;
78542;SDS011;67836;52.430;14.446;2023-07-29T11:40:12;2.50;;;1.40;;
78542;SDS011;67836;52.430;14.446;2023-07-29T11:42:57;1.35;;;0.85;;
78542;SDS011;67836;52.430;14.446;2023-07-29T11:45:42;2.95;;;1.70;;
78542;SDS011;67836;52.430;14.446;2023-07-29T11:48:27;2.40;;;1.20;;
78542;SDS011;67836;52.430;14.446;2023-07-29T11:51:12;1.55;;;0.90;;
78542;SDS011;67836;52.430;14.446;2023-07-29T11:53:56;2.05;;;1.20;;
78542;SDS011;67836;52.430;14.446;2023-07-29T11:56:41;2.83;;;1.30;;
78542;SDS011;67836;52.430;14.446;2023-07-29T11:59:25;2.45;;;1.40;;
78542;SDS011;67836;52.430;14.446;2023-07-29T12:02:15;2.28;;;1.20;;
78542;SDS011;67836;52.430;14.446;2023-07-29T12:05:01;1.85;;;1.02;;
78542;SDS011;67836;52.430;14.446;2023-07-29T12:07:47;2.20;;;1.08;;
78542;SDS011;67836;52.430;14.446;2023-07-29T12:10:31;1.55;;;0.98;;
78542;SDS011;67836;52.430;14.446;2023-07-29T12:13:16;2.85;;;1.13;;
78542;SDS011;67836;52.430;14.446;2023-07-29T12:16:00;1.50;;;1.10;;
78542;SDS011;67836;52.430;14.446;2023-07-29T12:18:45;1.33;;;0.70;;
78542;SDS011;67836;52.430;14.446;2023-07-29T12:21:30;1.88;;;0.98;;
78542;SDS011;67836;52.430;14.446;2023-07-29T12:24:15;2.03;;;1.10;;
78542;SDS011;67836;52.430;14.446;2023-07-29T12:26:59;1.35;;;0.88;;
78542;SDS011;67836;52.430;14.446;2023-07-29T12:29:43;2.38;;;0.90;;
78542;SDS011;67836;52.430;14.446;2023-07-29T12:32:27;1.40;;;0.98;;
78542;SDS011;67836;52.430;14.446;2023-07-29T12:35:13;1.65;;;1.08;;
78542;SDS011;67836;52.430;14.446;2023-07-29T12:37:58;1.48;;;0.80;;
78542;SDS011;67836;52.430;14.446;2023-07-29T12:40:42;3.38;;;1.25;;
78542;SDS011;67836;52.430;14.446;2023-07-29T12:43:28;1.27;;;1.08;;
78542;SDS011;67836;52.430;14.446;2023-07-29T12:46:12;1.88;;;1.30;;
78542;SDS011;67836;52.430;14.446;2023-07-29T12:48:56;2.72;;;1.33;;
78542;SDS011;67836;52.430;14.446;2023-07-29T12:51:40;1.58;;;1.02;;
78542;SDS011;67836;52.430;14.446;2023-07-29T12:54:24;2.05;;;1.23;;
78542;SDS011;67836;52.430;14.446;2023-07-29T12:57:08;1.63;;;1.00;;
78542;SDS011;67836;52.430;14.446;2023-07-29T12:59:52;3.67;;;1.13;;
78542;SDS011;67836;52.430;14.446;2023-07-29T13:02:36;1.98;;;0.95;;
78542;SDS011;67836;52.430;14.446;2023-07-29T13:05:20;4.60;;;1.02;;
78542;SDS011;67836;52.430;14.446;2023-07-29T13:08:04;1.90;;;0.90;;
78542;SDS011;67836;52.430;14.446;2023-07-29T13:10:48;1.60;;;0.60;;
78542;SDS011;67836;52.430;14.446;2023-07-29T13:13:32;4.13;;;0.77;;
78542;SDS011;67836;52.430;14.446;2023-07-29T13:16:17;3.15;;;0.90;;
78542;SDS011;67836;52.430;14.446;2023-07-29T13:19:01;4.28;;;0.80;;
78542;SDS011;67836;52.430;14.446;2023-07-29T13:21:44;4.18;;;1.13;;
78542;SDS011;67836;52.430;14.446;2023-07-29T13:24:29;2.58;;;0.80;;
78542;SDS011;67836;52.430;14.446;2023-07-29T13:27:13;3.83;;;1.10;;
78542;SDS011;67836;52.430;14.446;2023-07-29T13:29:57;1.13;;;0.60;;
78542;SDS011;67836;52.430;14.446;2023-07-29T13:32:41;0.28;;;0.28;;
78542;SDS011;67836;52.430;14.446;2023-07-29T13:35:25;1.95;;;0.68;;
78542;SDS011;67836;52.430;14.446;2023-07-29T13:38:10;1.25;;;0.63;;
78542;SDS011;67836;52.430;14.446;2023-07-29T13:40:57;1.73;;;1.05;;
78542;SDS011;67836;52.430;14.446;2023-07-29T13:43:41;2.00;;;0.80;;
78542;SDS011;67836;52.430;14.446;2023-07-29T13:46:25;2.53;;;1.10;;
78542;SDS011;67836;52.430;14.446;2023-07-29T13:49:09;2.60;;;1.10;;
78542;SDS011;67836;52.430;14.446;2023-07-29T13:51:53;3.00;;;1.20;;
78542;SDS011;67836;52.430;14.446;2023-07-29T13:54:37;8.23;;;1.35;;
78542;SDS011;67836;52.430;14.446;2023-07-29T13:57:22;2.83;;;1.33;;
78542;SDS011;67836;52.430;14.446;2023-07-29T14:00:06;2.85;;;1.48;;
78542;SDS011;67836;52.430;14.446;2023-07-29T14:02:51;2.28;;;1.17;;
78542;SDS011;67836;52.430;14.446;2023-07-29T14:05:35;3.53;;;1.05;;
78542;SDS011;67836;52.430;14.446;2023-07-29T14:08:20;2.78;;;1.50;;
78542;SDS011;67836;52.430;14.446;2023-07-29T14:11:06;1.88;;;1.05;;
78542;SDS011;67836;52.430;14.446;2023-07-29T14:13:50;2.63;;;1.42;;
78542;SDS011;67836;52.430;14.446;2023-07-29T14:16:34;2.38;;;1.17;;
78542;SDS011;67836;52.430;14.446;2023-07-29T14:19:18;1.73;;;1.15;;
78542;SDS011;67836;52.430;14.446;2023-07-29T14:22:03;2.97;;;1.02;;
78542;SDS011;67836;52.430;14.446;2023-07-29T14:24:47;4.07;;;1.70;;
78542;SDS011;67836;52.430;14.446;2023-07-29T14:27:31;2.78;;;1.45;;
78542;SDS011;67836;52.430;14.446;2023-07-29T14:30:15;1.52;;;0.77;;
78542;SDS011;67836;52.430;14.446;2023-07-29T14:32:59;2.92;;;1.20;;
78542;SDS011;67836;52.430;14.446;2023-07-29T14:35:43;1.02;;;0.70;;
78542;SDS011;67836;52.430;14.446;2023-07-29T14:38:27;2.03;;;0.98;;
78542;SDS011;67836;52.430;14.446;2023-07-29T14:41:12;3.72;;;1.33;;
78542;SDS011;67836;52.430;14.446;2023-07-29T14:43:57;4.20;;;1.60;;
78542;SDS011;67836;52.430;14.446;2023-07-29T14:46:41;4.05;;;1.35;;
78542;SDS011;67836;52.430;14.446;2023-07-29T14:49:25;4.25;;;1.30;;
78542;SDS011;67836;52.430;14.446;2023-07-29T14:52:09;3.35;;;0.80;;
78542;SDS011;67836;52.430;14.446;2023-07-29T14:54:53;2.45;;;0.95;;
78542;SDS011;67836;52.430;14.446;2023-07-29T14:57:37;2.88;;;1.35;;
78542;SDS011;67836;52.430;14.446;2023-07-29T15:00:22;3.45;;;1.08;;
78542;SDS011;67836;52.430;14.446;2023-07-29T15:03:06;1.30;;;0.85;;
78542;SDS011;67836;52.430;14.446;2023-07-29T15:05:51;2.58;;;1.33;;
78542;SDS011;67836;52.430;14.446;2023-07-29T15:08:35;3.30;;;1.40;;
78542;SDS011;67836;52.430;14.446;2023-07-29T15:11:19;3.42;;;1.00;;
78542;SDS011;67836;52.430;14.446;2023-07-29T15:14:03;3.45;;;1.10;;
78542;SDS011;67836;52.430;14.446;2023-07-29T15:16:47;2.47;;;1.35;;
78542;SDS011;67836;52.430;14.446;2023-07-29T15:19:31;1.70;;;0.90;;
78542;SDS011;67836;52.430;14.446;2023-07-29T15:22:16;3.35;;;1.20;;
78542;SDS011;67836;52.430;14.446;2023-07-29T15:25:00;4.00;;;1.23;;
78542;SDS011;67836;52.430;14.446;2023-07-29T15:27:44;3.42;;;1.13;;
78542;SDS011;67836;52.430;14.446;2023-07-29T15:30:29;1.83;;;1.13;;
78542;SDS011;67836;52.430;14.446;2023-07-29T15:33:13;3.50;;;1.17;;
78542;SDS011;67836;52.430;14.446;2023-07-29T15:35:57;4.78;;;1.88;;
78542;SDS011;67836;52.430;14.446;2023-07-29T15:38:41;3.25;;;1.50;;
78542;SDS011;67836;52.430;14.446;2023-07-29T15:41:25;2.17;;;1.40;;
78542;SDS011;67836;52.430;14.446;2023-07-29T15:44:10;3.00;;;1.20;;
78542;SDS011;67836;52.430;14.446;2023-07-29T15:46:53;2.35;;;1.20;;
78542;SDS011;67836;52.430;14.446;2023-07-29T15:49:39;1.88;;;1.25;;
78542;SDS011;67836;52.430;14.446;2023-07-29T15:52:23;5.18;;;1.73;;
78542;SDS011;67836;52.430;14.446;2023-07-29T15:55:09;3.78;;;1.50;;
78542;SDS011;67836;52.430;14.446;2023-07-29T15:57:53;4.00;;;1.60;;
78542;SDS011;67836;52.430;14.446;2023-07-29T16:00:37;2.25;;;1.30;;
78542;SDS011;67836;52.430;14.446;2023-07-29T16:03:22;2.50;;;1.48;;
78542;SDS011;67836;52.430;14.446;2023-07-29T16:06:06;2.90;;;1.27;;
78542;SDS011;67836;52.430;14.446;2023-07-29T16:08:50;5.45;;;1.77;;
78542;SDS011;67836;52.430;14.446;2023-07-29T16:11:34;2.45;;;1.10;;
78542;SDS011;67836;52.430;14.446;2023-07-29T16:14:18;1.85;;;0.82;;
78542;SDS011;67836;52.430;14.446;2023-07-29T16:17:03;1.58;;;0.93;;
78542;SDS011;67836;52.430;14.446;2023-07-29T16:19:54;2.30;;;1.27;;
78542;SDS011;67836;52.430;14.446;2023-07-29T16:22:39;1.88;;;0.93;;
78542;SDS011;67836;52.430;14.446;2023-07-29T16:25:22;3.25;;;1.65;;
78542;SDS011;67836;52.430;14.446;2023-07-29T16:28:06;3.60;;;2.10;;
78542;SDS011;67836;52.430;14.446;2023-07-29T16:30:50;3.38;;;1.40;;
78542;SDS011;67836;52.430;14.446;2023-07-29T16:33:34;3.78;;;1.85;;
78542;SDS011;67836;52.430;14.446;2023-07-29T16:36:19;5.05;;;2.10;;
78542;SDS011;67836;52.430;14.446;2023-07-29T16:39:03;6.88;;;2.05;;
78542;SDS011;67836;52.430;14.446;2023-07-29T16:41:47;4.30;;;1.42;;
78542;SDS011;67836;52.430;14.446;2023-07-29T16:44:32;4.18;;;1.55;;
78542;SDS011;67836;52.430;14.446;2023-07-29T16:47:16;5.03;;;2.17;;
78542;SDS011;67836;52.430;14.446;2023-07-29T16:50:00;2.55;;;1.13;;
78542;SDS011;67836;52.430;14.446;2023-07-29T16:52:45;4.60;;;2.08;;
78542;SDS011;67836;52.430;14.446;2023-07-29T16:55:30;2.38;;;1.00;;
78542;SDS011;67836;52.430;14.446;2023-07-29T16:58:14;3.75;;;1.40;;
78542;SDS011;67836;52.430;14.446;2023-07-29T17:00:58;4.88;;;1.70;;